Time;durP1;ratioP1;P1;durP2;ratioP2;P2;SDS_P1;SDS_P2;PMS_P1;PMS_P2;Temp;Humidity;BMP_temperature;BMP_pressure;BME280_temperature;BME280_humidity;BME280_pressure;Samples;Min_cycle;Max_cycle;Signal;HPM_P1;HPM_P2
2021/04/12 00:00:59;;;;;;;8.70;7.43;;;3.80;57.00;;;;;;5000519;28;20049;-70
2021/04/12 00:03:31;;;;;;;10.73;6.97;;;3.70;56.90;;;;;;4990936;28;20042;-69
2021/04/12 00:06:03;;;;;;;10.05;7.30;;;3.80;57.10;;;;;;4998231;28;20057;-70
2021/04/12 00:08:40;;;;;;;8.52;7.32;;;3.60;56.10;;;;;;4999492;28;21297;-68
2021/04/12 00:11:19;;;;;;;9.20;6.88;;;3.60;55.70;;;;;;4998723;28;20052;-69
2021/04/12 00:13:53;;;;;;;10.25;7.70;;;3.60;55.90;;;;;;4995666;28;20952;-69
2021/04/12 00:16:24;;;;;;;8.95;7.65;;;3.60;55.80;;;;;;4999315;28;20563;-69
2021/04/12 00:18:55;;;;;;;10.48;7.80;;;3.60;55.60;;;;;;4997198;28;20058;-69
2021/04/12 00:21:27;;;;;;;11.02;8.52;;;3.50;54.30;;;;;;4994621;28;20060;-71
2021/04/12 00:24:00;;;;;;;8.40;7.50;;;3.50;56.80;;;;;;4998658;28;20053;-68
2021/04/12 00:26:33;;;;;;;10.55;7.30;;;3.50;56.40;;;;;;4995704;28;20058;-70
2021/04/12 00:29:04;;;;;;;9.55;7.57;;;3.40;55.30;;;;;;4989699;28;20053;-70
2021/04/12 00:31:37;;;;;;;9.65;7.53;;;3.40;55.40;;;;;;5001154;28;20127;-70
2021/04/12 00:34:10;;;;;;;8.70;6.80;;;3.30;55.50;;;;;;4992355;28;20046;-70
2021/04/12 00:36:43;;;;;;;10.35;8.18;;;3.40;56.90;;;;;;5000276;28;20073;-68
2021/04/12 00:39:16;;;;;;;10.10;7.00;;;3.30;56.70;;;;;;4999596;28;20050;-71
2021/04/12 00:42:00;;;;;;;10.68;8.48;;;3.40;57.80;;;;;;4997884;28;20050;-69
2021/04/12 00:44:47;;;;;;;9.95;7.43;;;3.50;58.60;;;;;;4998290;28;20046;-69
2021/04/12 00:47:30;;;;;;;10.48;8.07;;;3.40;57.70;;;;;;4998803;28;20050;-69
2021/04/12 00:50:13;;;;;;;11.57;8.85;;;3.50;57.60;;;;;;4999421;28;20088;-69
2021/04/12 00:53:19;;;;;;;10.82;7.90;;;3.40;56.90;;;;;;4992255;28;20045;-70
2021/04/12 00:55:53;;;;;;;10.40;8.15;;;3.40;57.00;;;;;;4996932;28;20058;-69
2021/04/12 00:58:28;;;;;;;10.00;7.38;;;3.30;56.80;;;;;;4998182;28;20046;-70
2021/04/12 01:01:07;;;;;;;10.27;7.50;;;3.40;56.80;;;;;;5000621;28;20512;-69
2021/04/12 01:03:54;;;;;;;11.18;8.32;;;3.40;56.90;;;;;;4988089;28;20563;-69
2021/04/12 01:06:30;;;;;;;11.70;8.80;;;3.30;56.80;;;;;;5002393;28;20050;-69
2021/04/12 01:09:15;;;;;;;11.52;8.82;;;3.20;56.60;;;;;;5001196;28;20058;-69
2021/04/12 01:12:10;;;;;;;10.85;8.05;;;3.20;57.00;;;;;;4995760;28;20140;-69
2021/04/12 01:15:06;;;;;;;10.68;8.25;;;3.10;56.70;;;;;;4998141;28;20558;-69
2021/04/12 01:17:54;;;;;;;11.30;8.63;;;2.90;55.00;;;;;;4998109;28;20046;-68
2021/04/12 01:21:01;;;;;;;13.82;9.45;;;2.90;56.50;;;;;;4997315;28;20504;-67
2021/04/12 01:23:54;;;;;;;11.93;8.65;;;3.00;56.50;;;;;;4991317;28;20053;-70
2021/04/12 01:27:08;;;;;;;13.07;8.25;;;2.90;56.50;;;;;;4996068;28;20057;-69
2021/04/12 01:30:16;;;;;;;12.68;9.10;;;2.90;56.50;;;;;;4998266;28;20054;-69
2021/04/12 01:33:20;;;;;;;13.25;9.30;;;2.90;57.50;;;;;;4993931;28;20092;-69
2021/04/12 01:36:24;;;;;;;14.18;8.98;;;2.90;57.70;;;;;;4996879;28;20064;-69
2021/04/12 01:39:06;;;;;;;19.98;10.75;;;2.90;57.60;;;;;;4999360;28;20190;-69
2021/04/12 01:41:45;;;;;;;13.52;9.65;;;2.90;58.20;;;;;;4999490;28;20077;-67
2021/04/12 01:44:28;;;;;;;12.40;8.85;;;2.80;58.10;;;;;;4991265;28;20050;-68
2021/04/12 01:47:04;;;;;;;14.13;9.40;;;2.90;58.40;;;;;;4999048;28;20121;-68
2021/04/12 01:49:49;;;;;;;15.30;9.80;;;2.80;58.00;;;;;;4996922;28;20054;-69
2021/04/12 01:52:47;;;;;;;13.82;9.65;;;2.90;58.50;;;;;;4993558;28;20242;-70
2021/04/12 01:55:32;;;;;;;21.60;10.50;;;2.80;57.60;;;;;;4992631;28;20081;-70
2021/04/12 01:58:25;;;;;;;13.70;9.80;;;2.80;57.60;;;;;;4995045;28;20085;-70
2021/04/12 02:01:24;;;;;;;13.57;9.98;;;2.80;58.20;;;;;;4998889;28;20100;-69
2021/04/12 02:04:25;;;;;;;14.18;9.50;;;2.80;57.40;;;;;;4956949;28;20058;-68
2021/04/12 02:07:11;;;;;;;15.32;9.95;;;2.80;57.10;;;;;;4997571;28;20072;-69
2021/04/12 02:10:06;;;;;;;14.05;9.30;;;2.90;58.20;;;;;;5001586;28;20050;-68
2021/04/12 02:12:39;;;;;;;;;;;2.90;56.50;;;;;;4991061;28;20065;-72
2021/04/12 02:15:17;;;;;;;12.52;8.95;;;2.90;58.20;;;;;;5002953;28;19979;-68
2021/04/12 02:17:56;;;;;;;12.52;8.88;;;2.80;54.80;;;;;;4997624;28;20591;-69
2021/04/12 02:20:30;;;;;;;13.73;9.55;;;2.90;56.50;;;;;;4997803;28;20057;-68
2021/04/12 02:23:29;;;;;;;14.55;9.77;;;2.80;56.20;;;;;;4991167;28;20129;-68
2021/04/12 02:26:18;;;;;;;13.57;9.25;;;2.90;56.50;;;;;;4996872;28;20046;-69
2021/04/12 02:29:02;;;;;;;15.13;10.43;;;2.80;56.30;;;;;;4997576;28;20495;-69
2021/04/12 02:31:47;;;;;;;16.50;9.88;;;2.80;55.30;;;;;;5001402;28;20760;-69
2021/04/12 02:34:31;;;;;;;14.77;9.38;;;2.90;56.50;;;;;;4993437;28;20085;-68
2021/04/12 02:37:12;;;;;;;17.03;9.90;;;2.80;56.40;;;;;;5002158;28;20057;-68
2021/04/12 02:39:53;;;;;;;16.88;10.00;;;2.90;56.50;;;;;;5000504;28;20085;-69
2021/04/12 02:42:34;;;;;;;14.68;10.00;;;2.90;55.70;;;;;;4999934;28;20050;-69
2021/04/12 02:45:15;;;;;;;16.52;10.35;;;2.90;56.50;;;;;;4999795;28;20455;-69
2021/04/12 02:48:13;;;;;;;16.50;11.15;;;2.90;56.50;;;;;;5003496;28;20500;-69
2021/04/12 02:50:59;;;;;;;16.70;10.95;;;3.10;56.60;;;;;;5004927;28;20065;-68
2021/04/12 02:53:51;;;;;;;14.73;10.00;;;3.10;57.40;;;;;;4992720;28;20500;-68
2021/04/12 02:56:31;;;;;;;14.13;10.38;;;3.00;55.50;;;;;;4976592;28;20050;-68
2021/04/12 02:59:12;;;;;;;16.40;10.20;;;3.00;55.40;;;;;;4997535;28;20103;-69
2021/04/12 03:02:36;;;;;;;13.80;9.90;;;2.90;56.30;;;;;;4999525;28;20050;-69
2021/04/12 03:05:27;;;;;;;13.02;9.65;;;2.90;55.50;;;;;;5000738;28;20061;-69
2021/04/12 03:08:36;;;;;;;14.75;9.23;;;2.80;55.60;;;;;;5001199;28;20543;-69
2021/04/12 03:11:30;;;;;;;13.57;8.98;;;2.90;55.80;;;;;;4983775;28;20054;-69
2021/04/12 03:14:20;;;;;;;13.07;9.43;;;2.80;54.70;;;;;;4994810;28;20050;-68
2021/04/12 03:17:23;;;;;;;13.02;9.73;;;2.90;56.50;;;;;;5003947;28;20054;-70
2021/04/12 03:20:26;;;;;;;14.25;9.32;;;2.80;55.00;;;;;;4969479;28;20054;-69
2021/04/12 03:23:30;;;;;;;14.50;8.98;;;2.80;55.90;;;;;;4992944;28;20053;-69
2021/04/12 03:26:08;;;;;;;14.48;10.05;;;2.70;54.50;;;;;;5001064;28;20212;-68
2021/04/12 03:28:49;;;;;;;15.18;9.60;;;2.80;55.80;;;;;;5001109;28;20046;-70
2021/04/12 03:31:40;;;;;;;13.57;9.75;;;2.80;55.40;;;;;;5004002;28;20054;-68
2021/04/12 03:34:19;;;;;;;13.93;9.02;;;2.90;54.40;;;;;;4993032;28;20065;-69
2021/04/12 03:37:06;;;;;;;15.23;9.10;;;2.90;52.90;;;;;;5001741;28;20491;-68
2021/04/12 03:39:47;;;;;;;13.90;9.73;;;2.80;54.10;;;;;;5001706;28;20048;-70
2021/04/12 03:42:50;;;;;;;14.73;9.43;;;2.80;53.80;;;;;;4997445;28;20081;-68
2021/04/12 03:45:44;;;;;;;14.88;9.57;;;2.80;53.30;;;;;;4996645;28;20057;-68
2021/04/12 03:48:52;;;;;;;16.25;9.98;;;2.80;54.90;;;;;;5002269;28;20046;-69
2021/04/12 03:51:55;;;;;;;13.98;9.70;;;2.80;54.20;;;;;;4980753;28;20053;-69
2021/04/12 03:54:37;;;;;;;15.80;10.70;;;2.80;53.10;;;;;;4996090;28;20068;-66
2021/04/12 03:57:33;;;;;;;14.85;10.88;;;2.80;54.80;;;;;;5006203;28;20049;-68
2021/04/12 04:00:33;;;;;;;14.70;9.55;;;2.80;54.50;;;;;;4998334;28;20117;-68
2021/04/12 04:03:34;;;;;;;15.30;10.52;;;2.70;50.70;;;;;;4969069;28;20169;-68
2021/04/12 04:06:25;;;;;;;17.35;11.27;;;2.80;52.50;;;;;;5001956;28;20054;-68
2021/04/12 04:09:09;;;;;;;16.42;10.70;;;2.80;53.00;;;;;;5000021;28;20057;-68
2021/04/12 04:12:00;;;;;;;17.88;11.63;;;2.80;54.50;;;;;;5001178;28;20076;-70
2021/04/12 04:15:17;;;;;;;20.23;12.20;;;2.70;55.10;;;;;;4994086;28;20042;-70
2021/04/12 04:18:04;;;;;;;19.80;12.63;;;2.80;56.40;;;;;;5001504;28;20436;-70
2021/04/12 04:20:51;;;;;;;17.92;12.45;;;2.80;56.40;;;;;;5004526;28;20046;-69
2021/04/12 04:23:35;;;;;;;20.77;13.35;;;2.70;56.30;;;;;;4997369;28;20470;-69
2021/04/12 04:26:18;;;;;;;18.75;13.20;;;2.70;56.30;;;;;;4999683;28;20189;-69
2021/04/12 04:29:30;;;;;;;19.30;12.25;;;2.70;56.30;;;;;;5000301;28;20050;-69
2021/04/12 04:32:43;;;;;;;19.55;12.82;;;2.70;56.20;;;;;;4996546;28;20119;-70
2021/04/12 04:35:36;;;;;;;22.83;14.98;;;2.70;56.30;;;;;;4997724;28;20096;-70
2021/04/12 04:38:30;;;;;;;21.45;13.27;;;2.70;56.30;;;;;;4999340;28;20050;-69
2021/04/12 04:41:06;;;;;;;20.40;13.73;;;2.80;57.80;;;;;;5000723;28;20048;-69
2021/04/12 04:43:55;;;;;;;19.67;13.75;;;2.70;56.50;;;;;;4988829;28;20493;-69
2021/04/12 04:46:37;;;;;;;19.92;13.13;;;2.70;56.30;;;;;;5000446;28;20510;-69
2021/04/12 04:49:40;;;;;;;19.13;13.15;;;2.80;57.60;;;;;;4999816;28;20049;-68
2021/04/12 04:52:31;;;;;;;19.38;12.85;;;2.70;56.30;;;;;;4947808;28;20160;-69
2021/04/12 04:55:12;;;;;;;18.13;12.20;;;2.70;56.80;;;;;;4994402;28;20055;-69
2021/04/12 04:57:55;;;;;;;17.80;11.75;;;2.60;57.10;;;;;;4997282;28;20054;-69
2021/04/12 05:00:40;;;;;;;17.40;11.70;;;2.50;56.10;;;;;;5001030;28;20048;-69
2021/04/12 05:03:46;;;;;;;16.88;11.00;;;2.50;57.00;;;;;;4993746;28;20046;-70
2021/04/12 05:06:28;;;;;;;;;;;2.50;56.90;;;;;;5000060;28;20050;-69
2021/04/12 05:09:28;;;;;;;16.67;10.30;;;2.40;57.60;;;;;;4996259;28;20388;-69
2021/04/12 05:12:19;;;;;;;16.58;10.98;;;2.50;58.30;;;;;;5001223;28;20412;-69
2021/04/12 05:15:08;;;;;;;19.17;11.48;;;2.30;56.10;;;;;;4995663;28;20058;-69
2021/04/12 05:18:04;;;;;;;18.27;11.35;;;2.40;56.60;;;;;;5000102;28;20492;-69
2021/04/12 05:21:09;;;;;;;18.70;12.13;;;2.30;57.10;;;;;;5002299;28;20046;-69
2021/04/12 05:23:55;;;;;;;21.08;14.02;;;2.20;57.00;;;;;;4990140;28;20056;-68
2021/04/12 05:26:55;;;;;;;23.42;13.52;;;2.30;58.40;;;;;;5000152;28;20045;-68
2021/04/12 05:29:57;;;;;;;21.73;13.77;;;2.20;57.20;;;;;;4998410;28;20501;-69
2021/04/12 05:32:41;;;;;;;22.35;14.13;;;2.20;57.60;;;;;;4992753;28;20058;-69
2021/04/12 05:35:33;;;;;;;22.40;14.05;;;2.20;57.80;;;;;;4997290;28;20054;-68
2021/04/12 05:38:30;;;;;;;23.40;13.55;;;2.30;58.10;;;;;;4998625;28;20049;-68
2021/04/12 05:41:22;;;;;;;23.30;14.88;;;2.30;58.40;;;;;;4998953;28;20124;-69
2021/04/12 05:44:36;;;;;;;24.73;15.48;;;2.40;58.20;;;;;;4988325;28;20050;-69
2021/04/12 05:47:11;;;;;;;23.58;15.13;;;2.50;58.10;;;;;;4998153;28;20042;-70
2021/04/12 05:50:04;;;;;;;26.40;16.25;;;2.60;58.70;;;;;;5000655;28;20058;-69
2021/04/12 05:53:01;;;;;;;25.20;15.63;;;2.70;58.80;;;;;;4991116;28;20052;-70
2021/04/12 05:55:55;;;;;;;27.27;17.75;;;2.60;58.30;;;;;;4952884;28;20086;-70
2021/04/12 05:58:37;;;;;;;24.60;15.70;;;2.50;56.10;;;;;;4996891;28;20074;-69
2021/04/12 06:01:19;;;;;;;25.05;16.58;;;2.60;58.10;;;;;;5000317;28;20054;-70
2021/04/12 06:03:52;;;;;;;24.05;15.13;;;2.70;57.40;;;;;;4987759;28;20875;-70
2021/04/12 06:06:59;;;;;;;24.33;14.93;;;2.80;57.30;;;;;;4996325;28;20054;-70
2021/04/12 06:09:39;;;;;;;25.25;15.75;;;2.90;56.50;;;;;;4999093;28;20057;-70
2021/04/12 06:12:28;;;;;;;25.23;15.88;;;2.90;54.10;;;;;;4995276;28;20057;-70
2021/04/12 06:15:37;;;;;;;23.38;15.57;;;3.00;54.70;;;;;;4995703;28;20057;-69
2021/04/12 06:18:31;;;;;;;22.00;14.48;;;3.20;54.90;;;;;;4935326;29;20094;-70
2021/04/12 06:21:36;;;;;;;21.30;14.43;;;3.20;52.90;;;;;;5001896;28;20056;-70
2021/04/12 06:24:36;;;;;;;20.30;14.02;;;3.20;50.70;;;;;;4989160;28;20042;-70
2021/04/12 06:27:40;;;;;;;21.77;14.57;;;3.30;49.60;;;;;;4992165;28;20363;-70
2021/04/12 06:30:21;;;;;;;21.67;14.75;;;3.30;50.70;;;;;;4996706;28;20054;-69
2021/04/12 06:33:28;;;;;;;21.20;13.52;;;3.60;51.20;;;;;;4992687;28;20048;-71
2021/04/12 06:36:21;;;;;;;19.45;12.38;;;3.70;50.70;;;;;;4997233;28;20054;-71
2021/04/12 06:39:11;;;;;;;16.80;11.15;;;3.60;45.10;;;;;;4997524;28;20046;-70
2021/04/12 06:42:37;;;;;;;16.23;11.80;;;3.80;45.30;;;;;;4998366;28;20061;-70
2021/04/12 06:45:19;;;;;;;;;;;3.80;41.20;;;;;;4994363;28;20064;-70
2021/04/12 06:48:34;;;;;;;19.27;11.27;;;3.70;43.20;;;;;;4998208;28;19925;-70
2021/04/12 06:51:49;;;;;;;21.25;11.45;;;3.50;42.10;;;;;;4917206;29;20062;-70
2021/04/12 06:54:57;;;;;;;20.92;12.68;;;3.80;46.20;;;;;;4909450;29;20056;-70
2021/04/12 06:57:57;;;;;;;18.20;11.65;;;3.80;44.40;;;;;;4995245;28;20054;-70
2021/04/12 07:00:57;;;;;;;16.55;11.38;;;3.60;39.00;;;;;;4987273;28;20057;-70
2021/04/12 07:04:09;;;;;;;18.27;12.05;;;3.50;41.00;;;;;;4992082;28;20050;-71
2021/04/12 07:07:08;;;;;;;22.45;13.23;;;3.70;46.40;;;;;;4980753;28;20069;-71
2021/04/12 07:09:57;;;;;;;18.27;11.70;;;3.80;46.70;;;;;;5001617;28;20045;-69
2021/04/12 07:13:05;;;;;;;19.08;12.48;;;3.40;42.00;;;;;;4994720;28;20058;-70
2021/04/12 07:16:23;;;;;;;20.20;12.25;;;3.50;46.30;;;;;;4991283;28;20054;-70
2021/04/12 07:19:18;;;;;;;21.75;13.13;;;3.40;45.00;;;;;;5003179;28;20128;-70
2021/04/12 07:22:13;;;;;;;23.38;15.40;;;3.40;45.60;;;;;;4998089;28;20109;-71
2021/04/12 07:25:09;;;;;;;20.55;14.00;;;3.50;45.00;;;;;;5002808;28;20050;-70
2021/04/12 07:28:28;;;;;;;22.52;15.20;;;3.40;40.90;;;;;;4998191;28;20133;-70
2021/04/12 07:31:53;;;;;;;20.92;14.32;;;3.60;43.30;;;;;;5001479;28;20054;-70
2021/04/12 07:35:08;;;;;;;23.08;15.27;;;3.50;42.50;;;;;;4993542;28;20425;-70
2021/04/12 07:38:03;;;;;;;24.20;14.57;;;3.70;40.00;;;;;;4997736;28;20141;-70
2021/04/12 07:41:12;;;;;;;26.60;16.70;;;3.60;38.50;;;;;;5002661;28;20288;-71
2021/04/12 07:44:31;;;;;;;23.05;14.45;;;3.80;41.60;;;;;;4990401;28;20042;-71
2021/04/12 07:47:29;;;;;;;25.80;15.80;;;3.60;41.00;;;;;;4999580;28;20049;-71
2021/04/12 07:50:36;;;;;;;24.33;15.32;;;3.60;39.30;;;;;;4990407;28;20061;-70
2021/04/12 07:53:56;;;;;;;22.13;15.32;;;3.50;38.00;;;;;;4996065;28;20058;-71
2021/04/12 07:57:03;;;;;;;22.70;14.90;;;3.60;36.40;;;;;;4939236;29;20062;-67
2021/04/12 08:00:31;;;;;;;25.30;15.20;;;3.60;37.90;;;;;;4935852;29;20526;-71
2021/04/12 08:03:17;;;;;;;20.92;14.98;;;3.80;39.50;;;;;;4994616;28;20056;-72
2021/04/12 08:06:29;;;;;;;24.75;15.93;;;3.90;38.40;;;;;;4996192;28;20062;-70
2021/04/12 08:09:26;;;;;;;23.50;16.00;;;3.90;37.10;;;;;;4963780;28;20050;-72
2021/04/12 08:12:24;;;;;;;21.20;14.00;;;4.20;37.40;;;;;;5000439;28;20057;-71
2021/04/12 08:15:33;;;;;;;24.13;15.15;;;4.30;33.60;;;;;;4989920;28;20062;-69
2021/04/12 08:18:29;;;;;;;21.98;14.48;;;4.30;33.30;;;;;;5000642;28;20046;-70
2021/04/12 08:21:29;;;;;;;24.15;14.38;;;4.00;29.10;;;;;;4997938;28;20046;-69
2021/04/12 08:24:35;;;;;;;22.80;14.80;;;4.00;31.20;;;;;;4992564;28;20049;-71
2021/04/12 08:27:39;;;;;;;24.05;14.80;;;4.00;30.80;;;;;;4995420;28;20069;-70
2021/04/12 08:30:41;;;;;;;24.33;15.35;;;4.10;26.10;;;;;;5002748;28;20397;-69
2021/04/12 08:33:51;;;;;;;22.30;14.88;;;4.10;27.10;;;;;;4993682;28;20046;-71
2021/04/12 08:36:52;;;;;;;18.88;13.57;;;4.30;24.70;;;;;;4999053;28;20061;-70
2021/04/12 08:40:02;;;;;;;18.13;13.15;;;4.30;24.60;;;;;;5000781;28;20049;-71
2021/04/12 08:43:03;;;;;;;18.77;12.57;;;4.40;23.30;;;;;;4980592;28;20054;-71
2021/04/12 08:46:10;;;;;;;20.17;12.90;;;4.30;22.80;;;;;;4998773;28;20045;-70
2021/04/12 08:48:53;;;;;;;16.80;12.25;;;4.30;22.60;;;;;;4997521;28;20472;-70
2021/04/12 08:51:55;;;;;;;16.55;12.10;;;4.30;21.10;;;;;;5000098;28;20129;-70
2021/04/12 08:55:04;;;;;;;16.80;11.40;;;4.50;18.50;;;;;;4993151;28;20061;-71
2021/04/12 08:58:13;;;;;;;15.27;11.30;;;4.50;18.90;;;;;;4999755;28;20130;-70
2021/04/12 09:01:17;;;;;;;16.50;11.52;;;4.60;18.90;;;;;;4999427;28;20430;-71
2021/04/12 09:04:30;;;;;;;20.85;12.77;;;4.50;18.40;;;;;;4988831;28;20041;-71
2021/04/12 09:07:27;;;;;;;15.25;11.20;;;4.60;18.40;;;;;;4959671;28;20047;-71
2021/04/12 09:10:24;;;;;;;22.75;13.10;;;4.80;18.00;;;;;;4996218;28;20099;-70
2021/04/12 09:13:51;;;;;;;14.90;10.45;;;4.80;18.70;;;;;;4991400;28;20053;-70
2021/04/12 09:16:32;;;;;;;17.92;11.30;;;4.80;12.60;;;;;;4978335;28;20065;-70
2021/04/12 09:19:28;;;;;;;14.82;10.52;;;5.00;16.20;;;;;;4995924;28;20133;-71
2021/04/12 09:22:32;;;;;;;15.65;10.82;;;5.20;14.60;;;;;;4998567;28;20045;-72
2021/04/12 09:25:32;;;;;;;18.17;11.03;;;4.90;12.20;;;;;;4994269;28;20073;-70
2021/04/12 09:28:14;;;;;;;13.80;10.18;;;4.90;10.10;;;;;;4995518;28;20125;-71
2021/04/12 09:31:15;;;;;;;13.98;9.10;;;4.80;8.10;;;;;;4995938;28;20076;-71
2021/04/12 09:34:20;;;;;;;15.93;10.25;;;5.20;10.60;;;;;;4989639;28;20071;-71
2021/04/12 09:37:12;;;;;;;15.80;9.55;;;5.40;6.60;;;;;;4997978;28;20082;-71
2021/04/12 09:40:16;;;;;;;15.32;9.57;;;5.30;6.90;;;;;;4998696;28;20058;-72
2021/04/12 09:43:03;;;;;;;11.48;8.50;;;5.70;2.10;;;;;;4991700;28;20054;-71
2021/04/12 09:45:53;;;;;;;12.32;8.25;;;5.70;1.50;;;;;;4993241;28;20049;-71
2021/04/12 09:49:09;;;;;;;11.68;8.35;;;5.80;1.00;;;;;;4999652;28;20137;-71
2021/04/12 09:52:10;;;;;;;11.95;8.57;;;5.70;1.00;;;;;;4998009;28;20415;-72
2021/04/12 09:55:02;;;;;;;12.88;8.68;;;5.90;1.00;;;;;;4996879;28;20053;-71
2021/04/12 09:58:09;;;;;;;9.25;5.93;;;5.80;1.40;;;;;;4997144;28;20077;-72
2021/04/12 10:00:48;;;;;;;9.88;6.07;;;6.00;1.00;;;;;;4997059;28;20052;-71
2021/04/12 10:03:47;;;;;;;10.55;7.60;;;5.80;1.00;;;;;;4992715;28;20054;-72
2021/04/12 10:07:00;;;;;;;9.13;6.75;;;5.80;1.00;;;;;;4998300;28;20496;-72
2021/04/12 10:10:02;;;;;;;9.88;6.43;;;5.80;1.00;;;;;;4998472;28;20057;-72
2021/04/12 10:12:56;;;;;;;11.25;7.00;;;5.70;1.00;;;;;;4990955;28;20102;-72
2021/04/12 10:15:36;;;;;;;10.38;7.05;;;6.30;1.00;;;;;;4997227;28;20492;-72
2021/04/12 10:18:14;;;;;;;8.23;6.40;;;6.60;1.00;;;;;;4995811;28;20050;-72
2021/04/12 10:20:45;;;;;;;8.80;7.22;;;6.50;1.00;;;;;;5000057;28;20057;-72
2021/04/12 10:23:19;;;;;;;9.20;6.63;;;6.40;1.00;;;;;;4994721;28;20050;-72
2021/04/12 10:25:57;;;;;;;9.43;6.28;;;6.10;1.00;;;;;;4995976;28;20046;-71
2021/04/12 10:28:29;;;;;;;11.82;6.25;;;6.20;1.00;;;;;;4999620;28;20537;-72
2021/04/12 10:31:05;;;;;;;6.72;5.00;;;6.60;1.00;;;;;;4997249;28;20050;-72
2021/04/12 10:33:41;;;;;;;9.02;5.20;;;6.30;1.00;;;;;;4990531;28;20052;-71
2021/04/12 10:36:18;;;;;;;8.52;5.25;;;6.30;1.00;;;;;;4996961;28;20416;-72
2021/04/12 10:38:48;;;;;;;5.50;4.35;;;6.40;1.00;;;;;;4998147;28;20508;-71
2021/04/12 10:41:24;;;;;;;8.13;5.50;;;6.60;1.00;;;;;;4997235;28;20057;-72
2021/04/12 10:44:12;;;;;;;6.80;5.18;;;6.50;1.00;;;;;;4991134;28;20052;-72
2021/04/12 10:46:50;;;;;;;6.03;4.57;;;6.20;1.00;;;;;;4996177;28;20058;-71
2021/04/12 10:49:22;;;;;;;7.70;5.40;;;6.10;1.00;;;;;;4996426;28;20050;-72
2021/04/12 10:51:57;;;;;;;5.00;4.28;;;6.60;1.00;;;;;;4996419;28;20050;-71
2021/04/12 10:55:04;;;;;;;7.32;5.15;;;6.50;1.00;;;;;;4994483;28;20073;-73
2021/04/12 10:57:41;;;;;;;5.93;4.80;;;6.90;1.00;;;;;;5001715;28;20057;-72
2021/04/12 11:00:29;;;;;;;6.70;4.72;;;6.90;1.00;;;;;;4999982;28;20108;-72
2021/04/12 11:03:14;;;;;;;5.28;4.65;;;7.10;1.00;;;;;;4995679;28;20053;-74
2021/04/12 11:05:45;;;;;;;5.72;4.90;;;6.80;1.00;;;;;;4996916;28;20138;-73
2021/04/12 11:08:28;;;;;;;6.18;4.03;;;7.00;1.00;;;;;;5001584;28;20057;-71
2021/04/12 11:11:10;;;;;;;9.15;4.20;;;7.00;1.00;;;;;;5002373;28;20056;-72
2021/04/12 11:13:45;;;;;;;6.88;4.38;;;7.10;1.00;;;;;;4992553;28;20050;-72
2021/04/12 11:16:18;;;;;;;6.03;4.28;;;7.10;1.00;;;;;;5002830;28;20052;-71
2021/04/12 11:19:21;;;;;;;6.85;4.22;;;6.80;1.00;;;;;;4998660;28;20510;-72
2021/04/12 11:22:02;;;;;;;4.97;4.30;;;6.90;1.00;;;;;;4996734;28;20137;-72
2021/04/12 11:24:38;;;;;;;9.80;5.22;;;6.30;1.00;;;;;;4999058;28;20049;-72
2021/04/12 11:27:37;;;;;;;5.10;4.60;;;6.40;1.00;;;;;;4997823;28;20426;-73
2021/04/12 11:30:14;;;;;;;8.40;5.57;;;6.60;1.00;;;;;;4981871;28;20046;-72
2021/04/12 11:32:53;;;;;;;5.55;4.55;;;6.30;1.00;;;;;;4993613;28;20100;-73
2021/04/12 11:35:28;;;;;;;5.78;4.97;;;6.80;1.00;;;;;;4998659;28;20096;-70
2021/04/12 11:38:03;;;;;;;9.15;4.60;;;7.40;1.00;;;;;;4994683;28;20138;-73
2021/04/12 11:40:34;;;;;;;7.78;4.65;;;7.00;1.00;;;;;;4995877;28;20052;-72
2021/04/12 11:43:06;;;;;;;8.73;4.07;;;7.10;1.00;;;;;;4994165;28;20468;-71
2021/04/12 11:45:40;;;;;;;5.82;3.88;;;7.70;1.00;;;;;;5002689;28;20086;-71
2021/04/12 11:48:15;;;;;;;8.13;4.30;;;7.40;1.00;;;;;;5001144;28;20060;-71
2021/04/12 11:50:46;;;;;;;11.02;4.75;;;7.70;1.00;;;;;;4999716;28;20607;-71
2021/04/12 11:53:24;;;;;;;5.60;4.43;;;7.50;1.00;;;;;;4992623;28;20054;-72
2021/04/12 11:55:58;;;;;;;7.07;5.07;;;7.00;1.00;;;;;;4996657;28;20060;-73
2021/04/12 11:58:30;;;;;;;4.38;3.50;;;7.60;1.00;;;;;;4998981;28;20409;-72
2021/04/12 12:01:04;;;;;;;5.38;3.35;;;7.40;1.00;;;;;;4996517;28;20050;-70
2021/04/12 12:04:03;;;;;;;6.47;3.60;;;7.50;1.00;;;;;;4994620;28;20131;-72
2021/04/12 12:06:45;;;;;;;3.88;3.00;;;7.40;1.00;;;;;;4994129;28;20046;-71
2021/04/12 12:09:34;;;;;;;6.97;3.30;;;7.10;1.00;;;;;;5001897;28;20053;-71
2021/04/12 12:12:10;;;;;;;4.85;3.40;;;6.90;1.00;;;;;;4998726;28;20407;-74
2021/04/12 12:14:42;;;;;;;5.78;3.35;;;7.10;1.00;;;;;;4996946;28;20080;-71
2021/04/12 12:17:15;;;;;;;5.82;3.38;;;7.40;1.00;;;;;;5000256;28;20045;-71
2021/04/12 12:19:48;;;;;;;4.82;3.10;;;7.30;1.00;;;;;;5000989;28;20045;-70
2021/04/12 12:22:23;;;;;;;5.80;2.88;;;6.80;1.00;;;;;;4996351;28;20058;-71
2021/04/12 12:25:00;;;;;;;4.60;2.80;;;7.20;1.00;;;;;;4994433;28;20136;-72
2021/04/12 12:27:32;;;;;;;5.53;3.20;;;7.70;1.00;;;;;;4994972;28;20058;-72
2021/04/12 12:30:08;;;;;;;2.97;2.70;;;7.70;1.00;;;;;;4999240;28;20049;-72
2021/04/12 12:32:53;;;;;;;3.83;2.50;;;7.70;1.00;;;;;;4991199;28;20057;-72
2021/04/12 12:35:37;;;;;;;3.83;2.60;;;7.70;1.00;;;;;;4992611;28;20056;-73
2021/04/12 12:38:16;;;;;;;5.45;2.40;;;7.80;1.00;;;;;;4999519;28;20108;-72
2021/04/12 12:40:50;;;;;;;2.78;2.50;;;7.50;1.00;;;;;;4998002;28;20058;-72
2021/04/12 12:43:24;;;;;;;4.97;2.42;;;7.40;1.00;;;;;;4991417;28;20113;-72
2021/04/12 12:45:53;;;;;;;6.53;2.30;;;7.50;1.00;;;;;;5000578;28;20092;-72
2021/04/12 12:48:26;;;;;;;2.25;2.05;;;7.60;1.00;;;;;;4997987;28;20550;-73
2021/04/12 12:50:57;;;;;;;6.28;2.83;;;7.60;1.00;;;;;;4998433;28;20046;-72
2021/04/12 12:53:29;;;;;;;6.38;2.53;;;7.60;1.00;;;;;;4991465;28;20060;-73
2021/04/12 12:56:00;;;;;;;3.92;2.28;;;8.00;1.00;;;;;;4996548;28;20049;-72
2021/04/12 12:58:30;;;;;;;3.15;2.03;;;7.80;1.00;;;;;;4994441;28;20060;-73
2021/04/12 13:01:03;;;;;;;5.38;2.65;;;8.10;1.00;;;;;;4997534;28;20046;-73
2021/04/12 13:03:35;;;;;;;2.90;2.70;;;8.20;1.00;;;;;;4990624;28;20161;-74
2021/04/12 13:06:19;;;;;;;4.93;2.60;;;7.90;1.00;;;;;;4998433;28;20058;-74
2021/04/12 13:08:52;;;;;;;4.68;2.55;;;7.80;1.00;;;;;;4993731;28;20139;-73
2021/04/12 13:11:32;;;;;;;3.45;2.80;;;7.70;1.00;;;;;;4996453;28;20050;-73
2021/04/12 13:14:10;;;;;;;3.30;2.50;;;7.60;1.00;;;;;;4992269;28;20153;-72
2021/04/12 13:16:37;;;;;;;5.47;2.38;;;7.50;1.00;;;;;;4996710;28;20050;-72
2021/04/12 13:19:06;;;;;;;3.83;2.40;;;7.60;1.00;;;;;;4998325;28;20042;-72
2021/04/12 13:21:36;;;;;;;3.17;2.40;;;7.70;1.00;;;;;;4997990;28;20120;-71
2021/04/12 13:24:13;;;;;;;3.22;2.42;;;7.90;1.00;;;;;;4972701;28;562796;-73
2021/04/12 13:26:45;;;;;;;3.50;2.40;;;8.20;1.00;;;;;;4997142;28;20062;-71
2021/04/12 13:29:20;;;;;;;2.53;2.30;;;8.00;1.00;;;;;;4997645;28;20089;-71
2021/04/12 13:31:50;;;;;;;3.50;2.22;;;8.30;1.00;;;;;;5000423;28;20492;-70
2021/04/12 13:34:21;;;;;;;8.05;2.05;;;8.40;1.00;;;;;;4995159;28;20499;-72
2021/04/12 13:36:53;;;;;;;3.35;2.40;;;8.10;1.00;;;;;;4998010;28;20080;-71
2021/04/12 13:39:31;;;;;;;6.15;2.65;;;8.20;1.00;;;;;;5002908;28;20061;-72
2021/04/12 13:42:00;;;;;;;4.53;2.30;;;8.40;1.00;;;;;;4996165;28;20047;-73
2021/04/12 13:44:28;;;;;;;3.00;1.92;;;8.00;1.00;;;;;;4993218;28;20057;-72
2021/04/12 13:47:02;;;;;;;2.55;1.80;;;7.90;1.00;;;;;;4996359;28;20053;-72
2021/04/12 13:49:34;;;;;;;;;;;7.70;1.00;;;;;;5002250;28;20099;-72
2021/04/12 13:52:06;;;;;;;3.75;2.50;;;7.90;1.00;;;;;;4994532;28;19961;-72
2021/04/12 13:54:44;;;;;;;2.63;2.13;;;7.70;1.00;;;;;;4997195;28;20137;-72
2021/04/12 13:57:21;;;;;;;3.42;2.15;;;7.60;1.00;;;;;;4997060;28;20069;-73
2021/04/12 13:59:52;;;;;;;3.00;2.30;;;7.70;1.00;;;;;;5000250;28;20100;-72
2021/04/12 14:02:26;;;;;;;2.15;1.90;;;7.90;1.00;;;;;;4991982;28;20072;-72
2021/04/12 14:04:55;;;;;;;;;;;8.00;1.00;;;;;;4998468;28;20045;-71
2021/04/12 14:07:31;;;;;;;2.35;2.05;;;7.90;1.00;;;;;;5000450;28;19929;-72
2021/04/12 14:10:08;;;;;;;3.35;2.22;;;7.90;1.00;;;;;;4997350;28;20057;-71
2021/04/12 14:12:45;;;;;;;6.55;2.58;;;7.90;1.00;;;;;;4994713;28;20046;-71
2021/04/12 14:15:16;;;;;;;4.63;2.30;;;7.90;1.00;;;;;;4995674;28;20078;-72
2021/04/12 14:17:46;;;;;;;3.42;2.30;;;8.20;1.00;;;;;;4994473;28;20129;-74
2021/04/12 14:20:22;;;;;;;5.32;2.20;;;7.90;1.00;;;;;;5002387;28;20093;-72
2021/04/12 14:22:52;;;;;;;5.22;2.53;;;7.80;1.00;;;;;;4988330;28;20420;-71
2021/04/12 14:25:27;;;;;;;2.05;1.85;;;8.00;1.00;;;;;;4993754;28;20053;-72
2021/04/12 14:28:09;;;;;;;3.83;2.40;;;7.90;1.00;;;;;;4997246;28;20046;-72
2021/04/12 14:30:43;;;;;;;3.72;2.53;;;7.70;1.00;;;;;;4999934;28;20050;-72
2021/04/12 14:33:15;;;;;;;5.50;2.50;;;7.50;1.00;;;;;;4992190;28;20052;-70
2021/04/12 14:35:46;;;;;;;4.70;2.53;;;7.10;1.00;;;;;;4989633;28;20050;-71
2021/04/12 14:38:21;;;;;;;4.65;2.50;;;7.50;1.00;;;;;;4996815;28;20050;-72